Time;durP1;ratioP1;P1;durP2;ratioP2;P2;SDS_P1;SDS_P2;PMS_P1;PMS_P2;Temp;Humidity;BMP_temperature;BMP_pressure;BME280_temperature;BME280_humidity;BME280_pressure;Samples;Min_cycle;Max_cycle;Signal;HPM_P1;HPM_P2
2022/01/22 00:00:49;;;;;;;7.95;3.10;;;;;;;-3.24;83.96;98565.47;5112312;28;20086;-72
2022/01/22 00:03:14;;;;;;;11.77;3.60;;;;;;;-3.20;84.96;98561.38;5113356;28;20028;-75
2022/01/22 00:05:41;;;;;;;7.13;3.47;;;;;;;-3.19;84.55;98563.00;5094662;28;20097;-76
2022/01/22 00:08:07;;;;;;;8.50;3.08;;;;;;;-3.18;84.58;98559.31;5113144;28;20376;-76
2022/01/22 00:10:32;;;;;;;16.00;4.43;;;;;;;-3.19;84.79;98561.16;5112983;28;20034;-76
2022/01/22 00:15:28;;;;;;;11.88;3.30;;;;;;;-3.20;84.75;98556.81;5113029;28;20061;-75
2022/01/22 00:17:54;;;;;;;9.27;4.03;;;;;;;-3.21;84.80;98565.06;5112831;28;20059;-75
2022/01/22 00:20:24;;;;;;;10.93;3.90;;;;;;;-3.19;84.80;98563.00;5112885;28;20153;-75
2022/01/22 00:22:50;;;;;;;;;;;;;;;-3.15;84.49;98566.94;5113498;28;20031;-75
2022/01/22 00:25:18;;;;;;;8.65;3.90;;;;;;;-3.12;84.89;98558.50;5112809;28;19919;-75
2022/01/22 00:27:45;;;;;;;9.45;3.72;;;;;;;-3.03;84.66;98567.97;5111931;28;20072;-76
2022/01/22 00:30:13;;;;;;;10.00;3.80;;;;;;;-3.02;84.54;98558.06;5111834;28;20047;-76
2022/01/22 00:32:39;;;;;;;9.40;3.45;;;;;;;-2.97;84.60;98555.59;5112385;28;20087;-76
2022/01/22 00:35:06;;;;;;;8.82;3.25;;;;;;;-2.96;84.49;98564.47;5112205;28;20098;-76
2022/01/22 00:37:33;;;;;;;9.05;3.55;;;;;;;-2.99;84.69;98566.53;5093116;28;20536;-76
2022/01/22 00:39:58;;;;;;;7.03;3.17;;;;;;;-3.03;84.51;98559.91;5111838;28;20393;-75
2022/01/22 00:42:24;;;;;;;7.45;3.15;;;;;;;-3.04;84.44;98554.78;5112152;28;20032;-75
2022/01/22 00:44:51;;;;;;;7.10;3.33;;;;;;;-3.02;84.66;98556.22;5113143;28;20128;-75
2022/01/22 00:47:17;;;;;;;11.30;4.15;;;;;;;-2.97;84.93;98554.78;5111641;28;20055;-76
2022/01/22 00:49:43;;;;;;;6.47;3.17;;;;;;;-2.96;84.41;98551.91;5091742;28;20395;-75
2022/01/22 00:52:08;;;;;;;10.38;4.78;;;;;;;-2.90;84.25;98555.59;5112033;28;20041;-76
2022/01/22 00:54:34;;;;;;;8.07;4.30;;;;;;;-2.81;84.41;98557.06;5111991;28;20101;-75
2022/01/22 00:56:59;;;;;;;8.40;3.88;;;;;;;-2.81;84.10;98564.25;5111946;28;20032;-75
2022/01/22 00:59:25;;;;;;;6.93;3.58;;;;;;;-2.79;84.17;98563.03;5112018;28;20038;-76
2022/01/22 01:01:50;;;;;;;6.80;3.25;;;;;;;-2.81;83.89;98549.00;5092422;28;20035;-75
2022/01/22 01:04:16;;;;;;;11.25;4.13;;;;;;;-2.77;84.17;98560.97;5112178;28;20471;-75
2022/01/22 01:06:41;;;;;;;8.88;4.65;;;;;;;-2.74;83.93;98557.03;5111838;28;20059;-75
2022/01/22 01:09:09;;;;;;;10.52;5.38;;;;;;;-2.79;84.33;98557.69;5111861;28;20439;-75
2022/01/22 01:11:40;;;;;;;10.07;5.47;;;;;;;-2.81;83.85;98557.06;5092993;28;20110;-76
2022/01/22 01:14:09;;;;;;;10.35;5.07;;;;;;;-2.81;83.65;98549.00;5111593;28;20119;-76
2022/01/22 01:35:13;;;;;;;23.77;8.25;;;;;;;-2.72;83.55;98544.25;5111806;28;20116;-75
2022/01/22 01:37:39;;;;;;;22.02;7.95;;;;;;;-2.72;83.48;98541.56;5111764;28;20103;-75
2022/01/22 01:40:07;;;;;;;15.93;7.35;;;;;;;-2.72;83.94;98537.03;5110773;28;20023;-74
2022/01/22 01:43:04;;;;;;;19.63;7.20;;;;;;;-2.68;84.02;98548.16;5092981;28;20060;-75
2022/01/22 01:45:30;;;;;;;15.07;6.85;;;;;;;-2.77;83.84;98534.13;5111063;28;20023;-75
2022/01/22 01:48:06;;;;;;;62.35;24.75;;;;;;;-2.77;83.67;98535.97;5110822;28;20019;-74
2022/01/22 01:50:35;;;;;;;92.72;34.65;;;;;;;-2.77;83.65;98533.28;5110900;28;20046;-75
2022/01/22 01:53:20;;;;;;;58.58;23.15;;;;;;;-2.74;83.30;98541.78;5093037;28;20051;-75
2022/01/22 01:58:13;;;;;;;11.82;6.15;;;;;;;-2.62;83.34;98525.00;5111508;28;20032;-75
2022/01/22 02:00:39;;;;;;;8.82;4.18;;;;;;;-2.61;83.77;98537.41;5110938;28;20443;-75
2022/01/22 02:03:08;;;;;;;10.20;4.50;;;;;;;-2.63;83.70;98528.72;5110887;28;20059;-75
2022/01/22 02:05:35;;;;;;;7.88;3.92;;;;;;;-2.64;83.46;98533.28;5092220;28;20031;-75
2022/01/22 02:08:00;;;;;;;7.18;3.80;;;;;;;-2.64;83.40;98525.22;5110814;28;20035;-75
2022/01/22 02:10:29;;;;;;;7.20;3.60;;;;;;;-2.63;84.06;98526.03;5110707;28;20093;-75
2022/01/22 02:23:46;;;;;;;6.85;3.20;;;;;;;-2.49;83.32;98530.38;5110858;28;20042;-75
2022/01/22 02:26:14;;;;;;;3.90;2.60;;;;;;;-2.48;83.09;98518.59;5110719;28;20031;-75
2022/01/22 02:28:41;;;;;;;4.50;2.78;;;;;;;-2.50;82.93;98517.16;5090524;28;20051;-75
2022/01/22 02:36:30;;;;;;;4.97;2.40;;;;;;;-2.57;82.84;98520.69;5110722;28;20043;-75
2022/01/22 02:41:24;;;;;;;3.40;2.10;;;;;;;-2.62;82.96;98520.47;5113976;28;20052;-75
2022/01/22 02:43:52;;;;;;;3.20;2.15;;;;;;;-2.62;82.53;98525.00;5113842;28;20467;-74
2022/01/22 02:46:21;;;;;;;3.80;2.30;;;;;;;-2.65;82.74;98523.59;5113596;28;20651;-75
2022/01/22 02:48:46;;;;;;;3.75;2.58;;;;;;;-2.62;82.89;98523.16;5113963;28;20020;-75
2022/01/22 02:51:12;;;;;;;3.97;2.42;;;;;;;-2.57;82.60;98527.91;5114289;28;20541;-76
2022/01/22 02:53:37;;;;;;;4.97;2.70;;;;;;;-2.50;82.83;98528.72;5114051;28;20387;-76
2022/01/22 02:56:03;;;;;;;6.00;3.00;;;;;;;-2.50;82.79;98530.59;5114291;28;20034;-75
2022/01/22 02:58:28;;;;;;;5.63;2.90;;;;;;;-2.51;82.82;98523.56;5114177;28;20125;-76
2022/01/22 03:00:54;;;;;;;7.28;2.92;;;;;;;-2.46;82.61;98524.56;5113915;28;20103;-75
2022/01/22 03:03:19;;;;;;;4.97;2.70;;;;;;;-2.51;82.28;98529.75;5113854;28;20145;-76
2022/01/22 03:05:45;;;;;;;4.50;2.78;;;;;;;-2.55;82.27;98531.19;5114130;28;20026;-76
2022/01/22 03:08:12;;;;;;;4.63;2.83;;;;;;;-2.57;82.42;98538.63;5113847;28;20027;-76
2022/01/22 03:10:39;;;;;;;5.15;2.63;;;;;;;-2.54;82.93;98538.22;5095296;28;20023;-76
2022/01/22 03:13:23;;;;;;;4.20;2.85;;;;;;;-2.54;82.18;98538.22;5113900;28;20015;-76
2022/01/22 03:16:00;;;;;;;3.90;2.40;;;;;;;-2.56;82.65;98543.81;5095581;28;20023;-75
2022/01/22 03:29:08;;;;;;;9.88;4.07;;;;;;;-2.56;81.98;98551.88;5113433;28;20037;-75
2022/01/22 03:31:33;;;;;;;6.63;3.22;;;;;;;-2.55;82.17;98555.38;5115665;27;20031;-75
2022/01/22 03:33:59;;;;;;;6.15;3.40;;;;;;;-2.53;82.08;98560.56;5113205;28;20039;-76
2022/01/22 03:36:28;;;;;;;7.40;3.75;;;;;;;-2.55;82.13;98558.91;5113359;28;20053;-76
2022/01/22 03:38:55;;;;;;;5.60;3.47;;;;;;;-2.53;81.95;98561.34;5092888;28;20069;-75
2022/01/22 03:41:23;;;;;;;6.72;3.78;;;;;;;-2.48;82.22;98563.44;5090137;28;20074;-75
2022/01/22 03:43:49;;;;;;;6.90;4.88;;;;;;;-2.47;82.53;98559.72;5111575;28;20028;-77
2022/01/22 03:46:15;;;;;;;4.72;3.78;;;;;;;-2.44;82.02;98559.28;5113002;28;20517;-77
2022/01/22 03:48:40;;;;;;;6.05;4.20;;;;;;;-2.44;82.24;98562.81;5111792;28;20027;-75
2022/01/22 03:51:06;;;;;;;5.60;3.80;;;;;;;-2.45;82.05;98563.03;5111131;28;20058;-76
2022/01/22 03:53:31;;;;;;;4.20;3.08;;;;;;;-2.45;82.14;98563.03;5111558;27;20039;-77
2022/01/22 03:58:22;;;;;;;4.90;3.50;;;;;;;-2.48;81.59;98569.63;5112934;28;20036;-77
2022/01/22 04:00:50;;;;;;;5.60;4.10;;;;;;;-2.44;81.87;98565.50;5112399;28;20065;-78
2022/01/22 04:03:56;;;;;;;9.70;4.60;;;;;;;-2.47;81.68;98571.28;5093721;28;20023;-77
2022/01/22 04:08:35;;;;;;;4.60;3.30;;;;;;;-2.52;81.26;98573.75;5112210;27;21422;-78
2022/01/22 04:11:02;;;;;;;4.95;3.20;;;;;;;-2.52;81.57;98572.94;5092551;28;20597;-78
2022/01/22 04:13:32;;;;;;;4.35;3.08;;;;;;;-2.54;81.31;98573.13;5111313;28;20247;-77
2022/01/22 04:15:58;;;;;;;5.53;2.95;;;;;;;-2.61;81.59;98572.31;5111252;28;20035;-77
2022/01/22 04:29:01;;;;;;;9.98;4.75;;;;;;;-3.10;81.21;98577.91;5111164;28;20035;-79
2022/01/22 04:31:27;;;;;;;14.43;5.80;;;;;;;-3.15;80.80;98577.69;5110744;28;20053;-78
2022/01/22 04:33:52;;;;;;;11.40;5.60;;;;;;;-3.22;81.10;98582.19;5111386;28;20087;-78
2022/01/22 04:36:18;;;;;;;10.20;4.43;;;;;;;-3.31;81.19;98582.38;5092983;28;20028;-78
2022/01/22 04:38:43;;;;;;;6.78;4.05;;;;;;;-3.39;80.85;98585.25;5110718;28;20106;-77
2022/01/22 04:41:08;;;;;;;7.72;4.43;;;;;;;-3.46;80.92;98589.75;5110571;28;20039;-78
2022/01/22 04:43:36;;;;;;;8.77;4.07;;;;;;;-3.53;80.79;98586.25;5110967;28;20036;-77
2022/01/22 04:46:25;;;;;;;7.90;4.07;;;;;;;-3.61;80.93;98593.44;5110903;28;20482;-78
2022/01/22 04:56:47;;;;;;;41.75;15.23;;;;;;;-3.78;81.31;98618.94;5110027;28;20490;-78
2022/01/22 04:59:14;;;;;;;25.52;12.95;;;;;;;-3.69;81.67;98627.66;5111046;28;20102;-77
2022/01/22 05:01:40;;;;;;;22.40;13.68;;;;;;;-3.63;81.97;98633.03;5109814;28;20023;-78
2022/01/22 05:04:05;;;;;;;28.33;16.00;;;;;;;-3.57;81.97;98642.13;5110572;28;20042;-78
2022/01/22 05:06:31;;;;;;;27.17;18.92;;;;;;;-3.49;82.09;98654.53;5110794;28;20125;-77
2022/01/22 05:08:57;;;;;;;24.20;15.50;;;;;;;-3.40;81.94;98657.88;5110715;28;20088;-78
2022/01/22 05:11:24;;;;;;;24.95;20.02;;;;;;;-3.36;82.03;98653.75;5110064;28;20032;-78
2022/01/22 05:13:52;;;;;;;13.05;8.95;;;;;;;-3.33;81.90;98661.41;5110602;28;20039;-79
2022/01/22 05:16:19;;;;;;;22.23;15.07;;;;;;;-3.29;81.77;98663.47;5110441;28;20209;-78
2022/01/22 05:19:33;;;;;;;14.02;9.68;;;;;;;-3.23;82.26;98669.88;5110431;28;20137;-78
2022/01/22 05:21:35;;;;;;;25.50;15.18;;;;;;;-3.17;81.57;98674.44;5096804;28;20032;-77
2022/01/22 05:24:05;;;;;;;30.98;20.70;;;;;;;-3.20;81.69;98666.81;5110404;28;20023;-78
2022/01/22 05:37:27;;;;;;;40.88;22.23;;;;;;;-3.38;81.50;98686.13;5108411;28;20031;-78
2022/01/22 05:39:53;;;;;;;76.40;34.90;;;;;;;-3.42;81.27;98684.06;5109982;28;20459;-78
2022/01/22 05:42:19;;;;;;;144.80;45.95;;;;;;;-3.55;81.25;98687.50;5109919;28;20073;-77
2022/01/22 05:44:44;;;;;;;102.07;31.88;;;;;;;-3.64;80.83;98692.19;5107543;28;20394;-77
2022/01/22 05:47:09;;;;;;;95.53;25.60;;;;;;;-3.75;81.05;98699.78;5110117;28;20081;-77
2022/01/22 05:49:41;;;;;;;49.05;16.77;;;;;;;-3.85;80.73;98707.34;5109513;28;20081;-77
2022/01/22 05:52:09;;;;;;;56.78;21.08;;;;;;;-3.95;80.78;98702.34;5109099;28;20474;-77
2022/01/22 06:00:06;;;;;;;178.45;65.50;;;;;;;-4.22;80.68;98715.53;5107945;28;20042;-77
2022/01/22 06:02:32;;;;;;;121.63;38.90;;;;;;;-4.22;80.89;98728.09;5109416;28;20027;-77
2022/01/22 06:04:58;;;;;;;87.47;32.60;;;;;;;-4.28;80.39;98732.38;5089204;28;20073;-78
2022/01/22 06:07:23;;;;;;;77.10;31.00;;;;;;;-4.35;80.73;98743.03;5109497;28;20024;-78
2022/01/22 06:10:16;;;;;;;83.00;27.83;;;;;;;-4.41;80.35;98741.13;5108997;28;20024;-77
2022/01/22 06:12:44;;;;;;;35.50;14.40;;;;;;;-4.50;80.34;98753.00;5108664;28;20028;-77
2022/01/22 06:15:10;;;;;;;38.60;14.88;;;;;;;-4.54;80.17;98763.25;5091567;28;20020;-77
2022/01/22 06:17:36;;;;;;;52.53;16.45;;;;;;;-4.56;80.97;98770.63;5113338;28;20020;-77
2022/01/22 06:20:02;;;;;;;30.88;11.07;;;;;;;-4.57;80.83;98768.97;5113180;28;20089;-78
2022/01/22 06:22:27;;;;;;;42.72;14.38;;;;;;;-4.47;81.28;98775.88;5113129;28;20030;-78
2022/01/22 06:24:53;;;;;;;20.38;8.93;;;;;;;-4.35;81.47;98785.88;5113351;28;20019;-77
2022/01/22 06:27:19;;;;;;;18.80;7.90;;;;;;;-4.28;81.74;98780.56;5112778;28;20027;-78
2022/01/22 06:29:45;;;;;;;13.77;7.13;;;;;;;-4.16;82.29;98785.41;5112720;28;20336;-77
2022/01/22 06:32:10;;;;;;;12.73;6.65;;;;;;;-4.10;82.31;98790.84;5112342;27;20565;-77
2022/01/22 06:34:36;;;;;;;14.25;7.45;;;;;;;-4.06;82.59;98793.97;5113301;28;20024;-77
2022/01/22 06:37:01;;;;;;;17.50;8.70;;;;;;;-4.03;82.67;98797.06;5112661;27;20024;-77
2022/01/22 06:39:27;;;;;;;15.07;7.40;;;;;;;-3.99;83.15;98797.53;5094451;28;20015;-77
2022/01/22 06:41:53;;;;;;;12.50;6.20;;;;;;;-3.97;83.16;98806.22;5112637;28;20066;-77
2022/01/22 06:44:22;;;;;;;10.35;5.32;;;;;;;-3.95;83.27;98806.00;5112840;28;20050;-76
2022/01/22 06:46:50;;;;;;;20.35;9.98;;;;;;;-3.95;83.00;98797.97;5112366;28;20024;-78
2022/01/22 06:49:16;;;;;;;16.27;7.88;;;;;;;-3.91;83.04;98802.75;5112855;28;20090;-78
2022/01/22 06:51:42;;;;;;;18.48;8.73;;;;;;;-3.87;82.99;98797.03;5112729;28;20138;-77
2022/01/22 06:54:10;;;;;;;19.27;9.88;;;;;;;-3.91;82.87;98800.09;5112563;28;20058;-77
2022/01/22 06:56:36;;;;;;;20.10;8.52;;;;;;;-3.93;82.21;98802.13;5112178;28;20063;-77
2022/01/22 06:59:03;;;;;;;11.13;5.75;;;;;;;-3.98;81.92;98815.28;5111495;28;20028;-77
2022/01/22 07:01:28;;;;;;;14.93;6.28;;;;;;;-3.98;82.22;98814.44;5093240;28;20467;-77
2022/01/22 07:03:55;;;;;;;9.13;5.82;;;;;;;-4.01;82.21;98815.66;5111951;28;20015;-77
2022/01/22 07:06:22;;;;;;;12.43;6.25;;;;;;;-3.99;82.12;98815.44;5110983;27;20026;-73
2022/01/22 07:08:48;;;;;;;35.92;12.40;;;;;;;-4.03;82.22;98817.69;5111084;28;20042;-75
2022/01/22 07:11:13;;;;;;;38.90;13.13;;;;;;;-4.01;82.58;98830.88;5093701;28;20490;-78
2022/01/22 07:13:39;;;;;;;36.13;11.70;;;;;;;-4.03;82.15;98836.44;5094035;28;20019;-74
2022/01/22 07:16:06;;;;;;;27.92;9.02;;;;;;;-4.00;82.44;98840.56;5111122;28;20115;-75
2022/01/22 07:18:31;;;;;;;18.45;9.00;;;;;;;-4.00;82.17;98846.78;5092335;28;20099;-74
2022/01/22 07:20:57;;;;;;;39.85;13.18;;;;;;;-3.98;82.04;98860.81;5093211;28;20119;-74
2022/01/22 07:25:49;;;;;;;14.65;7.70;;;;;;;-3.84;82.38;98859.09;5110918;28;20573;-74
2022/01/22 07:28:15;;;;;;;18.15;9.98;;;;;;;-3.76;82.10;98860.78;5114213;27;20532;-75
2022/01/22 07:30:40;;;;;;;19.17;11.20;;;;;;;-3.69;81.97;98866.22;5113260;28;20417;-75
2022/01/22 07:33:06;;;;;;;23.10;12.20;;;;;;;-3.65;82.50;98868.31;5112895;28;20069;-74
2022/01/22 07:35:35;;;;;;;22.70;10.95;;;;;;;-3.56;82.57;98862.81;5112861;28;20102;-74
2022/01/22 07:38:03;;;;;;;15.95;9.60;;;;;;;-3.53;81.84;98876.66;5092497;28;20077;-75
2022/01/22 07:40:29;;;;;;;20.20;9.68;;;;;;;-3.53;81.81;98871.28;5110803;28;20043;-75
2022/01/22 07:42:55;;;;;;;22.88;11.10;;;;;;;-3.53;82.08;98879.34;5093556;28;20027;-75
2022/01/22 07:45:21;;;;;;;19.88;10.23;;;;;;;-3.54;81.52;98884.91;5113728;28;20383;-71
2022/01/22 07:47:46;;;;;;;21.05;9.52;;;;;;;-3.56;81.78;98893.13;5112981;28;20023;-71
2022/01/22 07:50:12;;;;;;;24.10;12.10;;;;;;;-3.57;81.26;98882.63;5112966;28;20534;-72
2022/01/22 07:52:38;;;;;;;16.05;8.70;;;;;;;-3.60;81.24;98891.84;5094345;28;20027;-73
2022/01/22 07:55:04;;;;;;;15.82;8.88;;;;;;;-3.65;81.10;98897.81;5113120;28;20383;-72
2022/01/22 07:57:29;;;;;;;15.75;8.07;;;;;;;-3.69;81.37;98899.22;5113050;28;20482;-72
2022/01/22 07:59:55;;;;;;;20.77;11.50;;;;;;;-3.76;81.02;98899.16;5113132;28;20027;-73
2022/01/22 08:02:20;;;;;;;19.83;10.48;;;;;;;-3.82;81.20;98902.59;5113147;27;20447;-72
2022/01/22 08:04:45;;;;;;;19.38;9.35;;;;;;;-3.85;81.14;98910.19;5112909;28;20034;-72
2022/01/22 08:07:11;;;;;;;18.70;8.05;;;;;;;-3.82;81.33;98913.31;5112219;28;20066;-72
2022/01/22 08:09:37;;;;;;;17.08;8.68;;;;;;;-3.75;81.58;98914.22;5112544;28;20078;-72
2022/01/22 08:12:02;;;;;;;20.02;9.45;;;;;;;-3.66;81.41;98914.91;5112447;28;20059;-72
2022/01/22 08:14:28;;;;;;;14.32;7.63;;;;;;;-3.55;81.57;98915.44;5113156;28;20032;-72
2022/01/22 08:16:53;;;;;;;17.17;9.13;;;;;;;-3.46;81.43;98916.91;5112893;28;20058;-72
2022/01/22 08:19:19;;;;;;;24.92;11.73;;;;;;;-3.38;81.22;98922.16;5112862;28;20024;-72
2022/01/22 08:21:46;;;;;;;12.05;7.57;;;;;;;-3.30;80.94;98921.19;5111594;28;20031;-72
2022/01/22 08:24:13;;;;;;;10.05;6.53;;;;;;;-3.22;80.79;98915.66;5112736;28;20031;-71
2022/01/22 08:26:45;;;;;;;18.90;7.65;;;;;;;-3.17;80.55;98920.47;5111569;27;20031;-71
2022/01/22 08:29:10;;;;;;;19.17;7.85;;;;;;;-3.07;79.97;98912.06;5114466;27;20058;-71
2022/01/22 08:36:47;;;;;;;18.98;8.45;;;;;;;-2.88;79.43;98924.78;5110709;28;20076;-71
2022/01/22 08:39:16;;;;;;;19.42;9.05;;;;;;;-2.83;79.91;98924.19;5108450;28;20031;-71
2022/01/22 08:41:41;;;;;;;21.08;10.25;;;;;;;-2.75;80.02;98942.84;5110647;28;20043;-71
2022/01/22 08:44:08;;;;;;;17.80;8.75;;;;;;;-2.65;79.53;98933.59;5111814;28;20502;-71
2022/01/22 08:46:34;;;;;;;22.02;10.73;;;;;;;-2.62;79.46;98931.34;5109682;28;20027;-71
2022/01/22 08:49:00;;;;;;;19.13;10.15;;;;;;;-2.57;79.40;98946.84;5092357;28;20414;-71
2022/01/22 08:51:26;;;;;;;15.02;9.23;;;;;;;-2.46;79.96;98940.91;5111603;28;20047;-71
2022/01/22 08:53:52;;;;;;;16.35;7.95;;;;;;;-2.49;78.60;98949.38;5111864;28;20104;-72
2022/01/22 08:56:18;;;;;;;23.83;13.43;;;;;;;-2.46;79.18;98953.53;5111842;28;20474;-71
2022/01/22 08:58:44;;;;;;;17.58;9.00;;;;;;;-2.37;78.91;98959.56;5111429;28;20167;-71
2022/01/22 09:01:11;;;;;;;12.85;6.40;;;;;;;-2.40;78.66;98953.53;5111414;28;20047;-71
2022/01/22 09:03:36;;;;;;;20.50;8.45;;;;;;;-2.37;78.65;98964.91;5111564;28;20031;-72
2022/01/22 09:06:04;;;;;;;12.57;5.97;;;;;;;-2.41;77.59;98951.88;5092705;28;20036;-72
2022/01/22 09:08:29;;;;;;;12.00;5.78;;;;;;;-2.40;77.84;98980.41;5092359;28;20395;-71
2022/01/22 09:10:55;;;;;;;16.40;8.07;;;;;;;-2.41;77.73;98969.84;5111470;27;20031;-71
2022/01/22 09:13:23;;;;;;;11.77;6.25;;;;;;;-2.35;77.76;98977.13;5113969;28;20031;-71
2022/01/22 09:15:50;;;;;;;9.88;5.93;;;;;;;-2.35;77.76;98970.94;5110020;27;20027;-71
2022/01/22 09:18:16;;;;;;;14.95;7.63;;;;;;;-2.38;76.83;98982.06;5110721;27;20120;-72
2022/01/22 09:23:09;;;;;;;11.93;5.82;;;;;;;-2.43;76.96;98999.59;5109359;27;20488;-72
2022/01/22 09:25:36;;;;;;;12.05;6.57;;;;;;;-2.44;76.85;99000.63;5113386;27;20038;-72
2022/01/22 09:28:03;;;;;;;11.75;6.00;;;;;;;-2.38;76.99;99015.13;5095470;28;20028;-71
2022/01/22 09:30:30;;;;;;;11.10;5.60;;;;;;;-2.31;76.57;99024.06;5108481;28;20061;-71
2022/01/22 09:32:55;;;;;;;8.98;5.40;;;;;;;-2.30;75.95;99032.97;5110162;28;20424;-71
2022/01/22 09:35:21;;;;;;;11.63;5.55;;;;;;;-2.30;75.66;99023.03;5109398;28;20077;-71
2022/01/22 09:37:47;;;;;;;13.25;6.57;;;;;;;-2.26;76.26;99029.66;5110708;28;20085;-71
2022/01/22 09:40:13;;;;;;;12.20;5.70;;;;;;;-2.25;75.71;99036.69;5109298;28;20090;-72
2022/01/22 09:42:39;;;;;;;17.75;6.57;;;;;;;-2.24;75.67;99040.19;5110603;28;20024;-72
2022/01/22 09:45:05;;;;;;;16.75;6.75;;;;;;;-2.17;75.66;99045.63;5110260;27;20368;-72
2022/01/22 09:47:31;;;;;;;15.57;6.90;;;;;;;-2.09;75.58;99045.47;5106648;27;20031;-69
2022/01/22 09:49:57;;;;;;;16.80;6.60;;;;;;;-2.05;74.90;99054.81;5108130;27;20027;-72
2022/01/22 09:52:23;;;;;;;12.68;5.75;;;;;;;-2.04;74.34;99052.94;5110493;27;20055;-70
2022/01/22 09:54:48;;;;;;;15.15;6.97;;;;;;;-2.02;73.86;99045.50;5108220;27;20490;-70
2022/01/22 09:57:14;;;;;;;12.55;5.88;;;;;;;-2.05;73.78;99051.25;5103236;28;20035;-69
2022/01/22 09:59:40;;;;;;;13.13;6.63;;;;;;;-2.07;73.77;99056.00;5108958;28;20046;-69
2022/01/22 10:02:15;;;;;;;15.43;6.68;;;;;;;-2.10;73.80;99039.25;5108254;28;20450;-69
2022/01/22 10:04:48;;;;;;;12.27;6.43;;;;;;;-2.14;73.61;99042.56;5108254;28;20034;-69
2022/01/22 10:07:21;;;;;;;13.70;6.47;;;;;;;-2.06;73.91;99039.69;5104257;28;20036;-69
2022/01/22 10:09:57;;;;;;;13.20;5.57;;;;;;;-1.96;73.57;99048.19;5105083;28;20061;-69
2022/01/22 10:12:24;;;;;;;15.40;6.10;;;;;;;-1.90;72.60;99051.97;5107686;28;20107;-69
2022/01/22 10:15:21;;;;;;;12.68;5.78;;;;;;;-1.80;72.59;99054.28;5089891;28;20101;-70
2022/01/22 10:17:55;;;;;;;13.68;5.75;;;;;;;-1.87;71.79;99045.34;5104776;28;20244;-73
2022/01/22 10:20:20;;;;;;;17.15;6.32;;;;;;;-1.87;71.70;99054.25;5086548;28;20467;-68
2022/01/22 10:22:47;;;;;;;13.48;5.70;;;;;;;-1.82;72.55;99059.03;5102952;28;20077;-68
2022/01/22 10:25:21;;;;;;;13.93;5.60;;;;;;;-1.82;71.59;99061.72;5107695;28;20032;-72
2022/01/22 10:27:58;;;;;;;11.23;4.97;;;;;;;-1.78;71.38;99060.28;5105616;28;20020;-74
2022/01/22 10:30:34;;;;;;;11.15;5.03;;;;;;;-1.75;70.66;99067.94;5085727;28;20066;-79
2022/01/22 10:33:09;;;;;;;12.30;6.00;;;;;;;-1.69;70.93;99075.22;5109639;28;20122;-73
2022/01/22 10:35:35;;;;;;;10.82;5.53;;;;;;;-1.67;70.90;99072.31;5108971;28;20039;-73
2022/01/22 10:38:03;;;;;;;17.23;6.93;;;;;;;-1.67;70.42;99073.16;5108076;28;20027;-73
2022/01/22 10:40:37;;;;;;;27.48;10.05;;;;;;;-1.70;70.58;99065.50;5087286;28;20044;-73
2022/01/22 10:43:32;;;;;;;23.50;9.68;;;;;;;-1.69;69.96;99066.31;5107283;28;20464;-73
2022/01/22 10:48:44;;;;;;;19.45;9.77;;;;;;;-1.86;69.99;99081.97;5109540;28;20106;-73
2022/01/22 10:51:10;;;;;;;25.05;8.70;;;;;;;-1.84;70.09;99086.13;5107416;28;20027;-73
2022/01/22 10:53:48;;;;;;;13.50;6.60;;;;;;;-1.68;70.17;99084.94;5109124;28;20031;-73
2022/01/22 10:56:22;;;;;;;11.93;6.07;;;;;;;-1.45;70.66;99088.34;5106909;28;20030;-74
2022/01/22 10:58:59;;;;;;;27.63;11.63;;;;;;;-1.26;69.90;99092.13;5109968;28;20023;-73
2022/01/22 11:01:52;;;;;;;25.90;10.98;;;;;;;-1.07;68.34;99103.97;5112638;27;20036;-73
2022/01/22 11:04:18;;;;;;;17.50;7.07;;;;;;;-1.03;67.63;99104.38;5112260;27;20126;-73
2022/01/22 11:07:03;;;;;;;10.98;5.00;;;;;;;-1.12;67.75;99103.75;5092212;27;20146;-73
2022/01/22 11:09:30;;;;;;;9.13;4.25;;;;;;;-1.13;68.30;99099.38;5113244;27;20038;-73
2022/01/22 11:12:00;;;;;;;10.80;5.50;;;;;;;-1.15;67.84;99093.38;5111623;28;20036;-73
2022/01/22 11:14:28;;;;;;;15.68;6.28;;;;;;;-1.19;66.90;99101.00;5112434;27;20475;-71
2022/01/22 11:16:54;;;;;;;16.73;5.93;;;;;;;-1.23;66.38;99102.47;5112389;27;20677;-72
2022/01/22 11:19:22;;;;;;;12.13;5.28;;;;;;;-1.17;66.90;99090.06;5111774;27;20035;-72
2022/01/22 11:21:53;;;;;;;16.00;6.18;;;;;;;-1.13;66.50;99094.00;5112318;27;20114;-72
2022/01/22 11:24:25;;;;;;;14.88;6.15;;;;;;;-1.09;66.45;99098.75;5112243;27;20067;-73
2022/01/22 11:26:58;;;;;;;21.15;8.20;;;;;;;-1.09;66.19;99101.47;5113539;27;20024;-72
2022/01/22 11:29:36;;;;;;;13.35;6.13;;;;;;;-1.14;65.39;99097.72;5111911;27;20501;-72
2022/01/22 11:32:08;;;;;;;25.85;10.88;;;;;;;-1.17;65.54;99103.50;5109655;27;20058;-73
2022/01/22 11:34:36;;;;;;;25.75;9.75;;;;;;;-1.17;65.99;99100.81;5112831;27;20031;-71
2022/01/22 11:37:15;;;;;;;12.20;6.75;;;;;;;-1.19;65.72;99106.41;5091122;27;20028;-71
2022/01/22 11:39:41;;;;;;;18.58;7.05;;;;;;;-1.29;65.48;99109.47;5104546;27;20482;-71
2022/01/22 11:42:08;;;;;;;28.70;11.32;;;;;;;-1.28;65.74;99124.59;5107672;27;20073;-71
2022/01/22 11:44:40;;;;;;;24.30;8.45;;;;;;;-1.33;64.27;99123.56;5110460;27;20032;-71
2022/01/22 11:47:11;;;;;;;30.58;9.90;;;;;;;-1.33;65.92;99115.47;5110909;27;20484;-71
2022/01/22 11:49:37;;;;;;;16.38;5.65;;;;;;;-1.23;66.08;99122.13;5109263;27;20398;-71
2022/01/22 11:52:09;;;;;;;29.08;9.68;;;;;;;-1.22;65.89;99129.19;5110633;27;20110;-72
2022/01/22 11:54:52;;;;;;;21.05;9.05;;;;;;;-1.25;65.54;99139.53;5112080;27;20031;-73
2022/01/22 11:57:19;;;;;;;35.63;15.90;;;;;;;-1.22;66.22;99137.25;5108729;27;20027;-71
2022/01/22 11:59:46;;;;;;;23.05;8.07;;;;;;;-1.18;65.76;99134.16;5110807;27;20042;-72
2022/01/22 12:02:16;;;;;;;32.33;8.68;;;;;;;-1.18;65.42;99150.31;5110927;27;20028;-73
2022/01/22 12:04:41;;;;;;;;;;;;;;;-1.25;65.40;99150.28;5111140;28;20036;-72
2022/01/22 12:07:09;;;;;;;49.97;15.70;;;;;;;-1.29;64.75;99162.50;5109652;27;19918;-72
2022/01/22 12:09:42;;;;;;;27.58;8.75;;;;;;;-1.44;65.02;99159.97;5110071;28;20081;-72
2022/01/22 12:15:23;;;;;;;10.43;5.07;;;;;;;-1.42;66.38;99168.63;5109984;27;20047;-72
2022/01/22 12:17:49;;;;;;;42.03;13.50;;;;;;;-1.48;65.92;99172.16;5109626;28;20042;-73
2022/01/22 12:23:18;;;;;;;15.77;4.90;;;;;;;-1.56;65.43;99175.81;5086620;28;20128;-73
2022/01/22 12:25:44;;;;;;;;;;;;;;;-1.61;65.85;99156.75;5109037;27;20495;-73
2022/01/22 12:28:11;;;;;;;14.88;7.07;;;;;;;-1.57;66.39;99156.16;5108380;28;19927;-73
2022/01/22 12:30:49;;;;;;;23.15;8.43;;;;;;;-1.57;66.12;99155.31;5108897;28;20031;-74
2022/01/22 12:33:32;;;;;;;28.50;11.00;;;;;;;-1.54;65.50;99160.31;5108392;28;20089;-75
2022/01/22 12:35:59;;;;;;;17.70;6.32;;;;;;;-1.39;65.14;99163.69;5108284;27;20523;-72
2022/01/22 12:38:33;;;;;;;29.73;7.72;;;;;;;-1.21;63.91;99170.38;5108095;27;20016;-72
2022/01/22 12:44:33;;;;;;;6.22;2.40;;;;;;;-0.88;64.00;99158.88;5108278;27;20028;-72
2022/01/22 12:47:19;;;;;;;11.00;3.70;;;;;;;-0.88;64.09;99172.34;5107061;28;20027;-73
2022/01/22 12:49:46;;;;;;;7.13;3.90;;;;;;;-1.03;63.19;99168.97;5106667;27;20545;-72
2022/01/22 12:52:13;;;;;;;9.27;4.22;;;;;;;-1.21;63.10;99181.97;5109622;28;20027;-72
2022/01/22 12:54:46;;;;;;;18.10;6.88;;;;;;;-1.38;64.15;99165.34;5108517;27;20032;-73
2022/01/22 12:57:16;;;;;;;18.80;5.97;;;;;;;-1.51;63.95;99171.50;5108891;27;20024;-74
2022/01/22 12:59:48;;;;;;;9.43;4.32;;;;;;;-1.52;64.34;99171.69;5109650;27;20035;-73
2022/01/22 13:02:13;;;;;;;23.35;8.27;;;;;;;-1.58;64.05;99186.78;5110387;27;20592;-74
2022/01/22 13:04:38;;;;;;;9.88;4.30;;;;;;;-1.61;64.83;99181.81;5110406;27;20486;-74
2022/01/22 13:07:11;;;;;;;13.27;5.80;;;;;;;-1.66;64.59;99187.78;5108968;28;20038;-74
2022/01/22 13:09:48;;;;;;;15.68;5.57;;;;;;;-1.73;65.12;99194.97;5105697;28;20421;-74
2022/01/22 13:12:13;;;;;;;9.60;4.00;;;;;;;-1.77;65.54;99199.09;5108174;28;20020;-74
2022/01/22 13:14:39;;;;;;;8.52;5.18;;;;;;;-1.81;65.51;99209.41;5110391;27;20394;-74
2022/01/22 13:17:11;;;;;;;21.63;7.30;;;;;;;-1.84;65.67;99214.34;5109513;28;20465;-74
2022/01/22 13:19:38;;;;;;;11.10;5.20;;;;;;;-1.83;65.36;99221.38;5107725;27;20103;-74
2022/01/22 13:22:03;;;;;;;9.85;4.68;;;;;;;-1.81;66.26;99238.16;5106956;28;20038;-75
2022/01/22 13:24:30;;;;;;;11.07;4.75;;;;;;;-1.85;65.85;99239.56;5107820;27;20032;-74
2022/01/22 13:29:30;;;;;;;12.77;5.93;;;;;;;-1.86;65.88;99245.97;5103625;28;20050;-73